sensor_id;sensor_type;location;lat;lon;timestamp;P1;durP1;ratioP1;P2;durP2;ratioP2
41436;SDS011;27178;49.460;10.850;2023-01-05T00:01:40;1.73;;;0.80;;
41436;SDS011;27178;49.460;10.850;2023-01-05T00:04:09;1.13;;;0.70;;
41436;SDS011;27178;49.460;10.850;2023-01-05T00:06:39;1.02;;;0.70;;
41436;SDS011;27178;49.460;10.850;2023-01-05T00:09:09;1.35;;;0.90;;
41436;SDS011;27178;49.460;10.850;2023-01-05T00:11:39;0.40;;;0.40;;
41436;SDS011;27178;49.460;10.850;2023-01-05T00:14:26;0.77;;;0.75;;
41436;SDS011;27178;49.460;10.850;2023-01-05T00:17:15;0.70;;;0.70;;
41436;SDS011;27178;49.460;10.850;2023-01-05T00:20:02;0.50;;;0.43;;
41436;SDS011;27178;49.460;10.850;2023-01-05T00:22:51;1.90;;;0.82;;
41436;SDS011;27178;49.460;10.850;2023-01-05T00:25:21;0.98;;;0.90;;
41436;SDS011;27178;49.460;10.850;2023-01-05T00:27:51;0.95;;;0.95;;
41436;SDS011;27178;49.460;10.850;2023-01-05T00:30:21;0.63;;;0.63;;
41436;SDS011;27178;49.460;10.850;2023-01-05T00:32:50;0.57;;;0.50;;
41436;SDS011;27178;49.460;10.850;2023-01-05T00:35:19;0.88;;;0.68;;
41436;SDS011;27178;49.460;10.850;2023-01-05T00:37:48;0.70;;;0.60;;
41436;SDS011;27178;49.460;10.850;2023-01-05T00:40:18;0.40;;;0.40;;
41436;SDS011;27178;49.460;10.850;2023-01-05T00:42:48;0.75;;;0.50;;
41436;SDS011;27178;49.460;10.850;2023-01-05T00:45:17;0.80;;;0.80;;
41436;SDS011;27178;49.460;10.850;2023-01-05T00:47:47;0.77;;;0.77;;
41436;SDS011;27178;49.460;10.850;2023-01-05T00:50:18;1.58;;;0.80;;
41436;SDS011;27178;49.460;10.850;2023-01-05T00:52:46;0.65;;;0.65;;
41436;SDS011;27178;49.460;10.850;2023-01-05T00:55:16;1.08;;;0.57;;
41436;SDS011;27178;49.460;10.850;2023-01-05T00:57:45;0.77;;;0.77;;
41436;SDS011;27178;49.460;10.850;2023-01-05T01:00:14;0.90;;;0.77;;
41436;SDS011;27178;49.460;10.850;2023-01-05T01:02:45;5.35;;;4.80;;
41436;SDS011;27178;49.460;10.850;2023-01-05T01:05:14;3.17;;;2.28;;
41436;SDS011;27178;49.460;10.850;2023-01-05T01:07:42;1.40;;;1.27;;
41436;SDS011;27178;49.460;10.850;2023-01-05T01:10:11;1.52;;;1.00;;
41436;SDS011;27178;49.460;10.850;2023-01-05T01:12:40;0.85;;;0.85;;
41436;SDS011;27178;49.460;10.850;2023-01-05T01:15:09;0.88;;;0.88;;
41436;SDS011;27178;49.460;10.850;2023-01-05T01:17:37;1.42;;;0.77;;
41436;SDS011;27178;49.460;10.850;2023-01-05T01:20:06;0.82;;;0.77;;
41436;SDS011;27178;49.460;10.850;2023-01-05T01:22:36;1.20;;;0.60;;
41436;SDS011;27178;49.460;10.850;2023-01-05T01:25:04;3.83;;;1.10;;
41436;SDS011;27178;49.460;10.850;2023-01-05T01:27:33;0.60;;;0.60;;
41436;SDS011;27178;49.460;10.850;2023-01-05T01:30:03;0.75;;;0.68;;
41436;SDS011;27178;49.460;10.850;2023-01-05T01:32:32;0.65;;;0.57;;
41436;SDS011;27178;49.460;10.850;2023-01-05T01:35:00;0.50;;;0.50;;
41436;SDS011;27178;49.460;10.850;2023-01-05T01:37:28;0.63;;;0.52;;
41436;SDS011;27178;49.460;10.850;2023-01-05T01:39:56;0.40;;;0.40;;
41436;SDS011;27178;49.460;10.850;2023-01-05T01:42:25;0.77;;;0.77;;
41436;SDS011;27178;49.460;10.850;2023-01-05T01:44:54;0.47;;;0.47;;
41436;SDS011;27178;49.460;10.850;2023-01-05T01:47:30;0.55;;;0.55;;
41436;SDS011;27178;49.460;10.850;2023-01-05T01:50:02;0.50;;;0.50;;
41436;SDS011;27178;49.460;10.850;2023-01-05T01:52:35;0.40;;;0.40;;
41436;SDS011;27178;49.460;10.850;2023-01-05T01:55:05;0.40;;;0.40;;
41436;SDS011;27178;49.460;10.850;2023-01-05T01:57:34;0.65;;;0.60;;
41436;SDS011;27178;49.460;10.850;2023-01-05T02:00:06;0.45;;;0.40;;
41436;SDS011;27178;49.460;10.850;2023-01-05T02:02:37;0.40;;;0.40;;
41436;SDS011;27178;49.460;10.850;2023-01-05T02:05:07;0.75;;;0.63;;
41436;SDS011;27178;49.460;10.850;2023-01-05T02:07:39;0.40;;;0.40;;
41436;SDS011;27178;49.460;10.850;2023-01-05T02:10:11;0.43;;;0.40;;
41436;SDS011;27178;49.460;10.850;2023-01-05T02:12:45;0.30;;;0.30;;
41436;SDS011;27178;49.460;10.850;2023-01-05T02:15:28;0.57;;;0.52;;
41436;SDS011;27178;49.460;10.850;2023-01-05T02:18:07;0.30;;;0.30;;
41436;SDS011;27178;49.460;10.850;2023-01-05T02:20:51;0.40;;;0.40;;
41436;SDS011;27178;49.460;10.850;2023-01-05T02:26:42;0.52;;;0.30;;
41436;SDS011;27178;49.460;10.850;2023-01-05T02:33:01;0.30;;;0.30;;
41436;SDS011;27178;49.460;10.850;2023-01-05T02:35:39;0.35;;;0.32;;
41436;SDS011;27178;49.460;10.850;2023-01-05T02:38:17;0.43;;;0.43;;
41436;SDS011;27178;49.460;10.850;2023-01-05T02:40:54;0.40;;;0.40;;
41436;SDS011;27178;49.460;10.850;2023-01-05T02:43:25;0.30;;;0.30;;
41436;SDS011;27178;49.460;10.850;2023-01-05T02:45:55;0.20;;;0.20;;
41436;SDS011;27178;49.460;10.850;2023-01-05T02:48:25;0.60;;;0.60;;
41436;SDS011;27178;49.460;10.850;2023-01-05T02:50:55;0.40;;;0.40;;
41436;SDS011;27178;49.460;10.850;2023-01-05T02:53:32;0.57;;;0.38;;
41436;SDS011;27178;49.460;10.850;2023-01-05T02:56:05;0.30;;;0.30;;
41436;SDS011;27178;49.460;10.850;2023-01-05T02:58:40;0.70;;;0.40;;
41436;SDS011;27178;49.460;10.850;2023-01-05T03:01:13;0.68;;;0.45;;
41436;SDS011;27178;49.460;10.850;2023-01-05T03:03:48;0.33;;;0.33;;
41436;SDS011;27178;49.460;10.850;2023-01-05T03:06:21;0.25;;;0.25;;
41436;SDS011;27178;49.460;10.850;2023-01-05T03:08:53;0.40;;;0.40;;
41436;SDS011;27178;49.460;10.850;2023-01-05T03:11:24;0.20;;;0.20;;
41436;SDS011;27178;49.460;10.850;2023-01-05T03:14:19;1.55;;;0.20;;
41436;SDS011;27178;49.460;10.850;2023-01-05T03:16:52;1.77;;;0.40;;
41436;SDS011;27178;49.460;10.850;2023-01-05T03:19:24;0.40;;;0.40;;
41436;SDS011;27178;49.460;10.850;2023-01-05T03:22:09;0.50;;;0.40;;
41436;SDS011;27178;49.460;10.850;2023-01-05T03:24:57;0.68;;;0.47;;
41436;SDS011;27178;49.460;10.850;2023-01-05T03:27:44;0.63;;;0.40;;
41436;SDS011;27178;49.460;10.850;2023-01-05T03:30:33;0.25;;;0.22;;
41436;SDS011;27178;49.460;10.850;2023-01-05T03:33:35;0.30;;;0.30;;
41436;SDS011;27178;49.460;10.850;2023-01-05T03:36:28;0.50;;;0.30;;
41436;SDS011;27178;49.460;10.850;2023-01-05T03:39:04;1.50;;;0.57;;
41436;SDS011;27178;49.460;10.850;2023-01-05T03:41:35;0.20;;;0.20;;
41436;SDS011;27178;49.460;10.850;2023-01-05T03:44:05;0.25;;;0.25;;
41436;SDS011;27178;49.460;10.850;2023-01-05T03:46:34;0.20;;;0.20;;
41436;SDS011;27178;49.460;10.850;2023-01-05T03:49:02;0.28;;;0.28;;
41436;SDS011;27178;49.460;10.850;2023-01-05T03:51:32;0.32;;;0.30;;
41436;SDS011;27178;49.460;10.850;2023-01-05T03:54:07;1.58;;;0.20;;
41436;SDS011;27178;49.460;10.850;2023-01-05T03:56:35;0.35;;;0.30;;
41436;SDS011;27178;49.460;10.850;2023-01-05T03:59:04;0.45;;;0.40;;
41436;SDS011;27178;49.460;10.850;2023-01-05T04:01:32;0.30;;;0.30;;
41436;SDS011;27178;49.460;10.850;2023-01-05T04:04:01;0.20;;;0.20;;
41436;SDS011;27178;49.460;10.850;2023-01-05T04:06:29;0.30;;;0.30;;
41436;SDS011;27178;49.460;10.850;2023-01-05T04:08:59;0.20;;;0.20;;
41436;SDS011;27178;49.460;10.850;2023-01-05T04:11:27;1.88;;;0.30;;
41436;SDS011;27178;49.460;10.850;2023-01-05T04:13:55;0.20;;;0.20;;
41436;SDS011;27178;49.460;10.850;2023-01-05T04:16:24;0.38;;;0.20;;
41436;SDS011;27178;49.460;10.850;2023-01-05T04:18:54;0.20;;;0.20;;
41436;SDS011;27178;49.460;10.850;2023-01-05T04:21:22;0.40;;;0.30;;
41436;SDS011;27178;49.460;10.850;2023-01-05T04:23:50;0.35;;;0.20;;
41436;SDS011;27178;49.460;10.850;2023-01-05T04:26:20;0.17;;;0.17;;
41436;SDS011;27178;49.460;10.850;2023-01-05T04:28:48;0.50;;;0.50;;
41436;SDS011;27178;49.460;10.850;2023-01-05T04:31:17;0.30;;;0.30;;
41436;SDS011;27178;49.460;10.850;2023-01-05T04:33:45;0.20;;;0.20;;
41436;SDS011;27178;49.460;10.850;2023-01-05T04:36:14;0.47;;;0.25;;
41436;SDS011;27178;49.460;10.850;2023-01-05T04:38:42;0.20;;;0.17;;
41436;SDS011;27178;49.460;10.850;2023-01-05T04:41:10;0.40;;;0.38;;
41436;SDS011;27178;49.460;10.850;2023-01-05T04:43:40;0.32;;;0.32;;
41436;SDS011;27178;49.460;10.850;2023-01-05T04:46:08;0.38;;;0.30;;
41436;SDS011;27178;49.460;10.850;2023-01-05T04:48:37;0.30;;;0.30;;
41436;SDS011;27178;49.460;10.850;2023-01-05T04:51:05;0.30;;;0.30;;
41436;SDS011;27178;49.460;10.850;2023-01-05T04:53:34;0.38;;;0.38;;
41436;SDS011;27178;49.460;10.850;2023-01-05T04:56:02;0.32;;;0.32;;
41436;SDS011;27178;49.460;10.850;2023-01-05T04:58:30;0.32;;;0.30;;
41436;SDS011;27178;49.460;10.850;2023-01-05T05:01:00;0.40;;;0.40;;
41436;SDS011;27178;49.460;10.850;2023-01-05T05:03:28;0.85;;;0.50;;
41436;SDS011;27178;49.460;10.850;2023-01-05T05:05:58;0.80;;;0.68;;
41436;SDS011;27178;49.460;10.850;2023-01-05T05:08:27;0.38;;;0.38;;
41436;SDS011;27178;49.460;10.850;2023-01-05T05:10:55;0.52;;;0.47;;
41436;SDS011;27178;49.460;10.850;2023-01-05T05:13:24;0.77;;;0.30;;
41436;SDS011;27178;49.460;10.850;2023-01-05T05:15:52;1.52;;;0.65;;
41436;SDS011;27178;49.460;10.850;2023-01-05T05:18:22;1.80;;;0.60;;
41436;SDS011;27178;49.460;10.850;2023-01-05T05:20:51;0.80;;;0.60;;
41436;SDS011;27178;49.460;10.850;2023-01-05T05:23:19;0.80;;;0.70;;
41436;SDS011;27178;49.460;10.850;2023-01-05T05:25:48;0.65;;;0.65;;
41436;SDS011;27178;49.460;10.850;2023-01-05T05:28:17;0.40;;;0.40;;
41436;SDS011;27178;49.460;10.850;2023-01-05T05:30:47;0.65;;;0.50;;
41436;SDS011;27178;49.460;10.850;2023-01-05T05:33:16;0.20;;;0.20;;
41436;SDS011;27178;49.460;10.850;2023-01-05T05:35:46;0.25;;;0.25;;
41436;SDS011;27178;49.460;10.850;2023-01-05T05:38:14;0.10;;;0.10;;
41436;SDS011;27178;49.460;10.850;2023-01-05T05:40:43;0.30;;;0.20;;
41436;SDS011;27178;49.460;10.850;2023-01-05T05:43:12;0.85;;;0.25;;
41436;SDS011;27178;49.460;10.850;2023-01-05T05:45:41;0.15;;;0.15;;
41436;SDS011;27178;49.460;10.850;2023-01-05T05:48:15;0.52;;;0.45;;
41436;SDS011;27178;49.460;10.850;2023-01-05T05:50:44;0.88;;;0.30;;
41436;SDS011;27178;49.460;10.850;2023-01-05T05:53:14;1.17;;;0.47;;
41436;SDS011;27178;49.460;10.850;2023-01-05T05:55:42;0.88;;;0.52;;
41436;SDS011;27178;49.460;10.850;2023-01-05T05:58:14;1.15;;;0.50;;
41436;SDS011;27178;49.460;10.850;2023-01-05T06:00:43;0.60;;;0.60;;
41436;SDS011;27178;49.460;10.850;2023-01-05T06:03:11;1.05;;;0.50;;
41436;SDS011;27178;49.460;10.850;2023-01-05T06:05:40;1.67;;;0.82;;
41436;SDS011;27178;49.460;10.850;2023-01-05T06:08:08;1.85;;;1.15;;
41436;SDS011;27178;49.460;10.850;2023-01-05T06:10:38;1.67;;;1.10;;
41436;SDS011;27178;49.460;10.850;2023-01-05T06:13:07;1.85;;;1.10;;
41436;SDS011;27178;49.460;10.850;2023-01-05T06:15:35;2.70;;;1.38;;
41436;SDS011;27178;49.460;10.850;2023-01-05T06:18:03;3.25;;;1.60;;
41436;SDS011;27178;49.460;10.850;2023-01-05T06:20:32;1.92;;;1.08;;
41436;SDS011;27178;49.460;10.850;2023-01-05T06:23:01;6.60;;;2.30;;
41436;SDS011;27178;49.460;10.850;2023-01-05T06:25:29;2.85;;;1.50;;
41436;SDS011;27178;49.460;10.850;2023-01-05T06:27:59;5.50;;;1.80;;
41436;SDS011;27178;49.460;10.850;2023-01-05T06:30:28;5.25;;;1.92;;
41436;SDS011;27178;49.460;10.850;2023-01-05T06:32:56;5.72;;;2.38;;
41436;SDS011;27178;49.460;10.850;2023-01-05T06:35:25;5.20;;;1.95;;
41436;SDS011;27178;49.460;10.850;2023-01-05T06:37:53;5.10;;;1.83;;
41436;SDS011;27178;49.460;10.850;2023-01-05T06:40:21;4.00;;;1.50;;
41436;SDS011;27178;49.460;10.850;2023-01-05T06:42:49;6.38;;;2.05;;
41436;SDS011;27178;49.460;10.850;2023-01-05T06:45:19;3.63;;;1.73;;
41436;SDS011;27178;49.460;10.850;2023-01-05T06:47:48;4.18;;;2.08;;
41436;SDS011;27178;49.460;10.850;2023-01-05T06:50:16;5.03;;;2.00;;
41436;SDS011;27178;49.460;10.850;2023-01-05T06:52:44;5.10;;;2.10;;
41436;SDS011;27178;49.460;10.850;2023-01-05T06:55:13;4.78;;;1.70;;
41436;SDS011;27178;49.460;10.850;2023-01-05T06:57:43;5.22;;;2.15;;
41436;SDS011;27178;49.460;10.850;2023-01-05T07:00:12;4.25;;;1.75;;
41436;SDS011;27178;49.460;10.850;2023-01-05T07:02:42;3.08;;;1.55;;
41436;SDS011;27178;49.460;10.850;2023-01-05T07:05:10;6.85;;;2.15;;
41436;SDS011;27178;49.460;10.850;2023-01-05T07:07:39;7.80;;;1.98;;
41436;SDS011;27178;49.460;10.850;2023-01-05T07:10:07;3.13;;;1.92;;
41436;SDS011;27178;49.460;10.850;2023-01-05T07:12:36;5.28;;;1.85;;
41436;SDS011;27178;49.460;10.850;2023-01-05T07:15:05;5.78;;;2.20;;
41436;SDS011;27178;49.460;10.850;2023-01-05T07:17:34;7.70;;;2.20;;
41436;SDS011;27178;49.460;10.850;2023-01-05T07:20:05;5.97;;;1.95;;
41436;SDS011;27178;49.460;10.850;2023-01-05T07:22:34;6.25;;;2.17;;
41436;SDS011;27178;49.460;10.850;2023-01-05T07:25:02;4.22;;;2.03;;
41436;SDS011;27178;49.460;10.850;2023-01-05T07:27:31;4.05;;;1.92;;
41436;SDS011;27178;49.460;10.850;2023-01-05T07:30:01;4.20;;;1.65;;
41436;SDS011;27178;49.460;10.850;2023-01-05T07:32:30;4.47;;;2.15;;
41436;SDS011;27178;49.460;10.850;2023-01-05T07:34:58;8.38;;;2.10;;
41436;SDS011;27178;49.460;10.850;2023-01-05T07:37:28;6.17;;;2.13;;
41436;SDS011;27178;49.460;10.850;2023-01-05T07:39:56;4.30;;;2.20;;
41436;SDS011;27178;49.460;10.850;2023-01-05T07:42:25;7.55;;;2.22;;
41436;SDS011;27178;49.460;10.850;2023-01-05T07:44:53;4.75;;;2.13;;
41436;SDS011;27178;49.460;10.850;2023-01-05T07:47:21;7.32;;;2.42;;
41436;SDS011;27178;49.460;10.850;2023-01-05T07:49:49;7.77;;;2.77;;
41436;SDS011;27178;49.460;10.850;2023-01-05T07:52:18;6.47;;;2.10;;
41436;SDS011;27178;49.460;10.850;2023-01-05T07:54:47;4.07;;;1.67;;
41436;SDS011;27178;49.460;10.850;2023-01-05T07:57:15;4.50;;;2.00;;
41436;SDS011;27178;49.460;10.850;2023-01-05T07:59:44;4.03;;;1.80;;
41436;SDS011;27178;49.460;10.850;2023-01-05T08:02:12;6.97;;;2.13;;
41436;SDS011;27178;49.460;10.850;2023-01-05T08:04:40;3.00;;;1.63;;
41436;SDS011;27178;49.460;10.850;2023-01-05T08:07:09;8.07;;;2.30;;
41436;SDS011;27178;49.460;10.850;2023-01-05T08:09:37;7.97;;;2.53;;
41436;SDS011;27178;49.460;10.850;2023-01-05T08:12:24;5.93;;;2.30;;
41436;SDS011;27178;49.460;10.850;2023-01-05T08:14:54;7.30;;;2.33;;
41436;SDS011;27178;49.460;10.850;2023-01-05T08:17:22;8.93;;;2.70;;
41436;SDS011;27178;49.460;10.850;2023-01-05T08:19:51;4.07;;;2.10;;
41436;SDS011;27178;49.460;10.850;2023-01-05T08:22:19;5.45;;;2.40;;
41436;SDS011;27178;49.460;10.850;2023-01-05T08:24:48;5.57;;;1.98;;
41436;SDS011;27178;49.460;10.850;2023-01-05T08:27:17;8.45;;;2.70;;
41436;SDS011;27178;49.460;10.850;2023-01-05T08:29:47;6.43;;;2.08;;
41436;SDS011;27178;49.460;10.850;2023-01-05T08:32:15;5.80;;;2.17;;
41436;SDS011;27178;49.460;10.850;2023-01-05T08:34:43;8.55;;;2.40;;
41436;SDS011;27178;49.460;10.850;2023-01-05T08:37:20;6.03;;;2.00;;
41436;SDS011;27178;49.460;10.850;2023-01-05T08:39:49;7.00;;;2.30;;
41436;SDS011;27178;49.460;10.850;2023-01-05T08:42:17;5.20;;;2.00;;
41436;SDS011;27178;49.460;10.850;2023-01-05T08:44:47;4.40;;;2.03;;
41436;SDS011;27178;49.460;10.850;2023-01-05T08:47:16;5.50;;;2.15;;
41436;SDS011;27178;49.460;10.850;2023-01-05T08:49:46;5.00;;;2.10;;
41436;SDS011;27178;49.460;10.850;2023-01-05T08:52:15;5.25;;;1.95;;
41436;SDS011;27178;49.460;10.850;2023-01-05T08:54:44;5.32;;;1.98;;
41436;SDS011;27178;49.460;10.850;2023-01-05T08:57:13;3.13;;;1.50;;
41436;SDS011;27178;49.460;10.850;2023-01-05T08:59:41;7.22;;;2.10;;
41436;SDS011;27178;49.460;10.850;2023-01-05T09:02:11;6.03;;;2.05;;
41436;SDS011;27178;49.460;10.850;2023-01-05T09:04:46;5.30;;;2.30;;
41436;SDS011;27178;49.460;10.850;2023-01-05T09:07:15;4.00;;;1.77;;
41436;SDS011;27178;49.460;10.850;2023-01-05T09:09:43;5.22;;;1.67;;
41436;SDS011;27178;49.460;10.850;2023-01-05T09:12:11;3.25;;;1.60;;
41436;SDS011;27178;49.460;10.850;2023-01-05T09:14:40;3.75;;;1.73;;
41436;SDS011;27178;49.460;10.850;2023-01-05T09:17:09;5.30;;;2.45;;
41436;SDS011;27178;49.460;10.850;2023-01-05T09:19:38;6.50;;;1.95;;
41436;SDS011;27178;49.460;10.850;2023-01-05T09:22:07;4.65;;;1.85;;
41436;SDS011;27178;49.460;10.850;2023-01-05T09:24:36;5.38;;;2.10;;
41436;SDS011;27178;49.460;10.850;2023-01-05T09:27:04;3.90;;;1.67;;
41436;SDS011;27178;49.460;10.850;2023-01-05T09:29:33;5.93;;;2.10;;
41436;SDS011;27178;49.460;10.850;2023-01-05T09:32:01;4.53;;;2.08;;
41436;SDS011;27178;49.460;10.850;2023-01-05T09:34:29;4.57;;;1.63;;
41436;SDS011;27178;49.460;10.850;2023-01-05T09:37:00;5.82;;;1.80;;
41436;SDS011;27178;49.460;10.850;2023-01-05T09:39:28;3.85;;;1.73;;
41436;SDS011;27178;49.460;10.850;2023-01-05T09:41:57;9.35;;;1.90;;
41436;SDS011;27178;49.460;10.850;2023-01-05T09:44:29;4.35;;;2.30;;
41436;SDS011;27178;49.460;10.850;2023-01-05T09:47:00;4.68;;;2.25;;
41436;SDS011;27178;49.460;10.850;2023-01-05T09:49:30;4.97;;;2.00;;
41436;SDS011;27178;49.460;10.850;2023-01-05T09:52:03;4.72;;;1.60;;
41436;SDS011;27178;49.460;10.850;2023-01-05T09:54:36;3.17;;;1.70;;
41436;SDS011;27178;49.460;10.850;2023-01-05T09:57:06;5.20;;;1.83;;
41436;SDS011;27178;49.460;10.850;2023-01-05T09:59:42;4.38;;;1.88;;
41436;SDS011;27178;49.460;10.850;2023-01-05T10:02:17;4.70;;;1.65;;
41436;SDS011;27178;49.460;10.850;2023-01-05T10:04:52;2.97;;;1.58;;
41436;SDS011;27178;49.460;10.850;2023-01-05T10:07:29;4.53;;;1.73;;
41436;SDS011;27178;49.460;10.850;2023-01-05T10:10:07;4.88;;;1.55;;
41436;SDS011;27178;49.460;10.850;2023-01-05T10:12:56;4.30;;;1.80;;
41436;SDS011;27178;49.460;10.850;2023-01-05T10:15:32;5.50;;;1.85;;
41436;SDS011;27178;49.460;10.850;2023-01-05T10:18:08;6.65;;;2.03;;
41436;SDS011;27178;49.460;10.850;2023-01-05T10:20:43;3.95;;;1.60;;
41436;SDS011;27178;49.460;10.850;2023-01-05T10:23:22;3.45;;;1.85;;
41436;SDS011;27178;49.460;10.850;2023-01-05T10:26:00;3.00;;;1.40;;
41436;SDS011;27178;49.460;10.850;2023-01-05T10:28:38;3.90;;;1.50;;
41436;SDS011;27178;49.460;10.850;2023-01-05T10:31:11;3.30;;;1.35;;
41436;SDS011;27178;49.460;10.850;2023-01-05T10:33:46;4.00;;;1.63;;
41436;SDS011;27178;49.460;10.850;2023-01-05T10:36:31;3.20;;;1.58;;
41436;SDS011;27178;49.460;10.850;2023-01-05T10:39:39;5.78;;;1.67;;
41436;SDS011;27178;49.460;10.850;2023-01-05T10:42:47;4.68;;;1.92;;
41436;SDS011;27178;49.460;10.850;2023-01-05T10:45:24;3.58;;;1.40;;
41436;SDS011;27178;49.460;10.850;2023-01-05T10:47:56;4.63;;;2.13;;
41436;SDS011;27178;49.460;10.850;2023-01-05T10:50:30;4.80;;;1.83;;
41436;SDS011;27178;49.460;10.850;2023-01-05T10:53:06;6.18;;;2.08;;
41436;SDS011;27178;49.460;10.850;2023-01-05T10:55:42;4.43;;;2.00;;
41436;SDS011;27178;49.460;10.850;2023-01-05T10:58:19;2.83;;;1.33;;
41436;SDS011;27178;49.460;10.850;2023-01-05T11:00:50;4.47;;;1.70;;
41436;SDS011;27178;49.460;10.850;2023-01-05T11:03:23;6.70;;;2.03;;
41436;SDS011;27178;49.460;10.850;2023-01-05T11:06:18;3.72;;;1.50;;
41436;SDS011;27178;49.460;10.850;2023-01-05T11:08:48;4.35;;;1.95;;
41436;SDS011;27178;49.460;10.850;2023-01-05T11:11:22;4.93;;;1.70;;
41436;SDS011;27178;49.460;10.850;2023-01-05T11:13:52;5.25;;;2.05;;
41436;SDS011;27178;49.460;10.850;2023-01-05T11:16:24;4.55;;;2.17;;
41436;SDS011;27178;49.460;10.850;2023-01-05T11:18:54;3.45;;;1.67;;
41436;SDS011;27178;49.460;10.850;2023-01-05T11:21:26;5.88;;;1.80;;
41436;SDS011;27178;49.460;10.850;2023-01-05T11:24:25;4.55;;;2.10;;
41436;SDS011;27178;49.460;10.850;2023-01-05T11:26:57;3.20;;;1.95;;
41436;SDS011;27178;49.460;10.850;2023-01-05T11:29:27;5.30;;;2.00;;
41436;SDS011;27178;49.460;10.850;2023-01-05T11:31:57;5.35;;;2.20;;
41436;SDS011;27178;49.460;10.850;2023-01-05T11:34:28;6.20;;;2.45;;
41436;SDS011;27178;49.460;10.850;2023-01-05T11:37:04;7.43;;;1.80;;
41436;SDS011;27178;49.460;10.850;2023-01-05T11:39:40;6.60;;;2.10;;
41436;SDS011;27178;49.460;10.850;2023-01-05T11:42:18;5.10;;;1.88;;
41436;SDS011;27178;49.460;10.850;2023-01-05T11:44:56;6.80;;;2.15;;
41436;SDS011;27178;49.460;10.850;2023-01-05T11:47:27;6.25;;;2.05;;
41436;SDS011;27178;49.460;10.850;2023-01-05T11:50:13;5.47;;;2.15;;
41436;SDS011;27178;49.460;10.850;2023-01-05T11:52:47;5.70;;;1.90;;
41436;SDS011;27178;49.460;10.850;2023-01-05T11:55:30;5.65;;;2.08;;
41436;SDS011;27178;49.460;10.850;2023-01-05T11:58:11;7.40;;;2.20;;
41436;SDS011;27178;49.460;10.850;2023-01-05T12:03:52;8.07;;;2.33;;
41436;SDS011;27178;49.460;10.850;2023-01-05T12:06:43;4.30;;;1.77;;
41436;SDS011;27178;49.460;10.850;2023-01-05T12:09:23;7.68;;;1.95;;
41436;SDS011;27178;49.460;10.850;2023-01-05T12:12:05;4.15;;;2.13;;
41436;SDS011;27178;49.460;10.850;2023-01-05T12:14:54;4.45;;;1.80;;
41436;SDS011;27178;49.460;10.850;2023-01-05T12:17:35;5.68;;;2.10;;
41436;SDS011;27178;49.460;10.850;2023-01-05T12:20:18;5.38;;;2.00;;
41436;SDS011;27178;49.460;10.850;2023-01-05T12:23:01;4.35;;;2.05;;
41436;SDS011;27178;49.460;10.850;2023-01-05T12:25:41;4.25;;;1.90;;
41436;SDS011;27178;49.460;10.850;2023-01-05T12:28:30;4.50;;;1.95;;
41436;SDS011;27178;49.460;10.850;2023-01-05T12:31:41;4.25;;;1.85;;
41436;SDS011;27178;49.460;10.850;2023-01-05T12:34:59;5.43;;;2.00;;
41436;SDS011;27178;49.460;10.850;2023-01-05T12:37:38;7.47;;;2.60;;
41436;SDS011;27178;49.460;10.850;2023-01-05T12:40:27;5.30;;;1.65;;
41436;SDS011;27178;49.460;10.850;2023-01-05T12:43:07;6.80;;;2.58;;
41436;SDS011;27178;49.460;10.850;2023-01-05T12:48:41;4.75;;;2.05;;
41436;SDS011;27178;49.460;10.850;2023-01-05T12:51:15;5.40;;;2.22;;
41436;SDS011;27178;49.460;10.850;2023-01-05T12:53:49;8.88;;;2.38;;
41436;SDS011;27178;49.460;10.850;2023-01-05T12:56:24;5.75;;;2.10;;
41436;SDS011;27178;49.460;10.850;2023-01-05T12:59:04;8.38;;;2.50;;
41436;SDS011;27178;49.460;10.850;2023-01-05T13:01:38;4.47;;;2.42;;
41436;SDS011;27178;49.460;10.850;2023-01-05T13:04:23;6.35;;;2.20;;
41436;SDS011;27178;49.460;10.850;2023-01-05T13:07:09;6.30;;;2.45;;
41436;SDS011;27178;49.460;10.850;2023-01-05T13:09:41;4.82;;;2.15;;
41436;SDS011;27178;49.460;10.850;2023-01-05T13:12:11;7.43;;;2.33;;
41436;SDS011;27178;49.460;10.850;2023-01-05T13:14:41;6.55;;;2.55;;
41436;SDS011;27178;49.460;10.850;2023-01-05T13:17:20;6.65;;;2.22;;
41436;SDS011;27178;49.460;10.850;2023-01-05T13:19:53;7.30;;;2.42;;
41436;SDS011;27178;49.460;10.850;2023-01-05T13:22:30;7.85;;;2.63;;
41436;SDS011;27178;49.460;10.850;2023-01-05T13:25:02;6.47;;;2.13;;
41436;SDS011;27178;49.460;10.850;2023-01-05T13:27:38;8.77;;;2.45;;
41436;SDS011;27178;49.460;10.850;2023-01-05T13:30:07;7.45;;;2.40;;
41436;SDS011;27178;49.460;10.850;2023-01-05T13:32:47;6.68;;;2.45;;
41436;SDS011;27178;49.460;10.850;2023-01-05T13:35:31;4.55;;;2.08;;
41436;SDS011;27178;49.460;10.850;2023-01-05T13:41:28;5.72;;;2.40;;
41436;SDS011;27178;49.460;10.850;2023-01-05T13:44:16;6.75;;;2.17;;
41436;SDS011;27178;49.460;10.850;2023-01-05T13:47:10;5.85;;;2.13;;
41436;SDS011;27178;49.460;10.850;2023-01-05T13:50:06;8.00;;;2.30;;
41436;SDS011;27178;49.460;10.850;2023-01-05T13:53:02;7.63;;;2.40;;
41436;SDS011;27178;49.460;10.850;2023-01-05T13:55:36;5.93;;;2.15;;
41436;SDS011;27178;49.460;10.850;2023-01-05T14:01:02;7.15;;;2.65;;
41436;SDS011;27178;49.460;10.850;2023-01-05T14:03:34;7.68;;;2.90;;
41436;SDS011;27178;49.460;10.850;2023-01-05T14:06:06;8.13;;;2.70;;
41436;SDS011;27178;49.460;10.850;2023-01-05T14:08:47;8.32;;;3.00;;
41436;SDS011;27178;49.460;10.850;2023-01-05T14:11:20;6.57;;;2.70;;
41436;SDS011;27178;49.460;10.850;2023-01-05T14:13:52;6.28;;;2.45;;
41436;SDS011;27178;49.460;10.850;2023-01-05T14:19:23;6.28;;;2.25;;
41436;SDS011;27178;49.460;10.850;2023-01-05T14:22:04;6.13;;;2.28;;
41436;SDS011;27178;49.460;10.850;2023-01-05T14:24:51;6.78;;;2.78;;
41436;SDS011;27178;49.460;10.850;2023-01-05T14:27:21;6.90;;;2.17;;
41436;SDS011;27178;49.460;10.850;2023-01-05T14:32:47;6.18;;;2.50;;
41436;SDS011;27178;49.460;10.850;2023-01-05T14:35:21;6.07;;;2.50;;
41436;SDS011;27178;49.460;10.850;2023-01-05T14:37:57;6.38;;;2.72;;
41436;SDS011;27178;49.460;10.850;2023-01-05T14:40:34;8.55;;;2.78;;
41436;SDS011;27178;49.460;10.850;2023-01-05T14:43:06;5.20;;;2.38;;
41436;SDS011;27178;49.460;10.850;2023-01-05T14:46:04;8.13;;;2.72;;
41436;SDS011;27178;49.460;10.850;2023-01-05T14:48:35;7.63;;;2.65;;
41436;SDS011;27178;49.460;10.850;2023-01-05T14:51:12;6.28;;;2.53;;
41436;SDS011;27178;49.460;10.850;2023-01-05T14:53:50;6.70;;;2.72;;
41436;SDS011;27178;49.460;10.850;2023-01-05T14:56:23;4.82;;;2.70;;
41436;SDS011;27178;49.460;10.850;2023-01-05T14:58:54;8.48;;;4.47;;
41436;SDS011;27178;49.460;10.850;2023-01-05T15:01:32;6.93;;;3.80;;
41436;SDS011;27178;49.460;10.850;2023-01-05T15:04:09;6.80;;;3.50;;
41436;SDS011;27178;49.460;10.850;2023-01-05T15:06:44;9.02;;;3.10;;
41436;SDS011;27178;49.460;10.850;2023-01-05T15:09:37;10.07;;;2.53;;
41436;SDS011;27178;49.460;10.850;2023-01-05T15:12:19;6.15;;;2.80;;
41436;SDS011;27178;49.460;10.850;2023-01-05T15:15:12;6.20;;;2.53;;
41436;SDS011;27178;49.460;10.850;2023-01-05T15:18:11;11.00;;;3.15;;
41436;SDS011;27178;49.460;10.850;2023-01-05T15:21:07;6.95;;;2.85;;
41436;SDS011;27178;49.460;10.850;2023-01-05T15:24:05;12.20;;;3.42;;
41436;SDS011;27178;49.460;10.850;2023-01-05T15:27:20;5.78;;;2.60;;
41436;SDS011;27178;49.460;10.850;2023-01-05T15:30:09;6.80;;;2.60;;
41436;SDS011;27178;49.460;10.850;2023-01-05T15:32:49;6.97;;;2.58;;
41436;SDS011;27178;49.460;10.850;2023-01-05T15:35:27;6.40;;;2.60;;
41436;SDS011;27178;49.460;10.850;2023-01-05T15:38:03;9.18;;;3.13;;